Monticello, AR

3:25 PM CDT on April 18, 2015 (GMT -0500)
Hwy 172 | | Change Station
CLOSE
Current Station
Personal Weather Station
Location: Monticello, AR
Elevation: 246 ft
Nearby Weather Stations

Elev 246 ft 33.55 °N, 91.82 °W | Updated 9 minutes ago

Light Rain
Light Rain Mist
65.7 °F
Feels Like 65.7 °F
N
0.0
Wind Variable Wind from South
Gusts 0.0 mph

Today
High -- | Low -- °F
--% Chance of Precip.
Yesterday
High -- | Low -- °F
Precip. -- in
6:33 AM 7:40 PM
New Moon, 0% visible
Pressure 29.86 in
Visibility 1.5 miles
Clouds Mostly Cloudy 400 ft
Overcast 1000 ft
Dew Point 52 °F
Humidity 62%
Rainfall 0.17 in
Snow Depth Not available.
UV 3 out of 12
Pollen 3.40 out of 12
Air Quality Not available.
Flu Activity Sporadic
SPECI KLLQ 182007Z AUTO 08005KT 1 1/2SM -RA BR BKN004 OVC010 19/18 A2986 RMK AO2 CIG 002V006 P0005 T01890183

More Conditions Fewer Conditions

Pressure 29.86 in
Visibility 1.5 miles
Clouds Mostly Cloudy 400 ft
Overcast 1000 ft
Dew Point 52 °F
Humidity 62%
Rainfall 0.17 in
Snow Depth Not available.
UV 3 out of 12
Pollen 3.40 out of 12
Air Quality Not available.
Flu Activity Sporadic
SPECI KLLQ 182007Z AUTO 08005KT 1 1/2SM -RA BR BKN004 OVC010 19/18 A2986 RMK AO2 CIG 002V006 P0005 T01890183

More Conditions Fewer Conditions

10-Day Weather Forecast

Almanac

Astronomy

Apr. 18, 2015 Rise Set
Actual Time
Civil Twilight
Nautical Twilight
Astronomical Twilight
Moon
Length of Visible Light
Length of Day
Tomorrow will be .
, % of the Moon is Illuminated

Today's Extremes

State Highs State Lows

Community

WunderPhotos

Upload Photos

1,814,515 photos uploaded!

WunderBlogs® & News

Nearby

Air Quality

  Air Quality AQ Index Pollutant
Not available.

Snow Depth

Station Depth Elevation

Earthquake Activity

City Distance Mag. Time & Date
Minimum magnitude displayed is 2.5.

Coastal Water Temperatures

Place Temperature

Stations

Nearby Weather Stations

Station Location Temp. Windchill Dew Point Humidity Wind Precip. Elev Updated Type